Time;durP1;ratioP1;P1;durP2;ratioP2;P2;SDS_P1;SDS_P2;PMS_P1;PMS_P2;Temp;Humidity;BMP_temperature;BMP_pressure;BME280_temperature;BME280_humidity;BME280_pressure;Samples;Min_cycle;Max_cycle;Signal;HPM_P1;HPM_P2
2023/01/31 00:00:54;;;;;;;13.90;3.83;;;2.70;99.90;;;;;;4945965;29;20932;-53
2023/01/31 00:03:21;;;;;;;21.10;3.90;;;2.60;99.90;;;;;;4952838;28;20518;-53
2023/01/31 00:05:48;;;;;;;17.17;3.67;;;2.70;99.90;;;;;;4946625;28;20549;-53
2023/01/31 00:08:14;;;;;;;19.67;4.00;;;2.60;99.90;;;;;;4951081;28;20517;-52
2023/01/31 00:10:42;;;;;;;14.40;3.30;;;2.70;99.90;;;;;;4946706;29;20470;-53
2023/01/31 00:13:09;;;;;;;23.20;3.60;;;2.60;99.90;;;;;;4948740;28;20546;-52
2023/01/31 00:15:35;;;;;;;13.90;3.60;;;2.70;99.90;;;;;;4945065;28;20492;-52
2023/01/31 00:18:02;;;;;;;14.40;5.07;;;2.60;99.90;;;;;;4944174;28;20900;-52
2023/01/31 00:20:28;;;;;;;11.93;3.50;;;2.50;99.90;;;;;;4948001;29;20494;-52
2023/01/31 00:22:55;;;;;;;15.27;4.10;;;2.60;99.90;;;;;;4947234;29;20590;-53
2023/01/31 00:25:21;;;;;;;14.07;3.67;;;2.60;99.90;;;;;;4947750;28;20909;-52
2023/01/31 00:27:49;;;;;;;12.30;2.93;;;2.60;99.90;;;;;;4947562;28;20554;-52
2023/01/31 00:30:16;;;;;;;17.33;4.80;;;2.60;99.90;;;;;;4946170;29;20554;-52
2023/01/31 00:32:42;;;;;;;15.50;4.87;;;2.60;99.90;;;;;;4949117;28;20516;-53
2023/01/31 00:35:09;;;;;;;10.10;4.07;;;2.60;99.90;;;;;;4948261;29;20486;-51
2023/01/31 00:37:36;;;;;;;10.20;3.40;;;2.70;99.90;;;;;;4949504;28;20588;-52
2023/01/31 00:40:03;;;;;;;14.73;4.43;;;2.80;99.90;;;;;;4947668;28;20554;-52
2023/01/31 00:42:29;;;;;;;9.77;3.50;;;2.80;99.90;;;;;;4947417;29;20844;-52
2023/01/31 00:44:57;;;;;;;11.60;2.97;;;2.80;99.90;;;;;;4950564;29;20518;-52
2023/01/31 00:47:24;;;;;;;17.67;3.57;;;2.90;99.90;;;;;;4950607;29;20509;-53
2023/01/31 00:49:50;;;;;;;17.83;3.77;;;3.00;99.90;;;;;;4953639;28;20976;-52
2023/01/31 00:52:17;;;;;;;12.17;3.80;;;3.00;99.90;;;;;;4950557;28;20498;-51
2023/01/31 00:54:43;;;;;;;18.80;4.00;;;3.10;99.90;;;;;;4950699;28;20565;-51
2023/01/31 00:57:10;;;;;;;9.40;2.80;;;3.10;99.90;;;;;;4951107;28;20521;-52
2023/01/31 00:59:36;;;;;;;16.60;4.87;;;3.20;99.90;;;;;;4950941;28;20542;-52
2023/01/31 01:02:04;;;;;;;16.63;3.90;;;3.20;99.90;;;;;;4951054;28;20494;-53
2023/01/31 01:04:31;;;;;;;19.93;4.10;;;3.30;99.90;;;;;;4954926;28;20518;-52
2023/01/31 01:06:57;;;;;;;12.33;3.30;;;3.30;99.90;;;;;;4952794;28;20503;-53
2023/01/31 01:09:24;;;;;;;18.57;4.00;;;3.30;99.90;;;;;;4953276;28;20846;-53
2023/01/31 01:11:50;;;;;;;10.97;2.77;;;3.30;99.90;;;;;;4946721;28;20465;-53
2023/01/31 01:14:17;;;;;;;16.33;3.57;;;3.30;99.90;;;;;;4953373;28;20511;-53
2023/01/31 01:16:43;;;;;;;11.60;3.30;;;3.30;99.90;;;;;;4954830;28;20509;-52
2023/01/31 01:19:15;;;;;;;14.83;3.50;;;3.30;99.90;;;;;;4952176;28;20838;-55
2023/01/31 01:21:43;;;;;;;11.30;3.20;;;3.20;99.90;;;;;;4952830;29;20526;-53
2023/01/31 01:24:14;;;;;;;19.13;4.20;;;3.30;99.90;;;;;;4952259;29;20495;-52
2023/01/31 01:26:41;;;;;;;15.60;4.03;;;3.30;99.90;;;;;;4954321;28;20999;-55
2023/01/31 01:29:08;;;;;;;12.37;3.13;;;3.40;99.90;;;;;;4951642;28;20502;-53
2023/01/31 01:31:37;;;;;;;14.07;4.00;;;3.40;99.90;;;;;;4949422;28;20501;-52
2023/01/31 01:34:05;;;;;;;17.43;4.13;;;3.40;99.90;;;;;;4951050;28;20605;-53
2023/01/31 01:36:35;;;;;;;15.60;4.50;;;3.40;99.90;;;;;;4952328;28;20550;-51
2023/01/31 01:39:03;;;;;;;14.40;4.73;;;3.50;99.90;;;;;;4952287;28;20989;-52
2023/01/31 01:41:32;;;;;;;21.37;3.10;;;3.40;99.90;;;;;;4952909;28;20551;-52
2023/01/31 01:44:00;;;;;;;17.03;3.70;;;3.50;99.90;;;;;;4947104;29;20494;-51
2023/01/31 01:46:29;;;;;;;9.67;3.13;;;3.40;99.90;;;;;;4952191;29;20503;-52
2023/01/31 01:48:59;;;;;;;13.70;3.23;;;3.50;99.90;;;;;;4949112;28;20652;-53
2023/01/31 01:51:27;;;;;;;15.40;3.70;;;3.50;99.90;;;;;;4949258;29;20466;-52
2023/01/31 01:53:59;;;;;;;19.67;4.23;;;3.50;99.90;;;;;;4948042;29;20514;-52
2023/01/31 01:56:31;;;;;;;10.80;2.80;;;3.50;99.90;;;;;;4952211;29;20506;-53
2023/01/31 01:59:03;;;;;;;16.03;3.70;;;3.50;99.90;;;;;;4951868;29;20474;-52
2023/01/31 02:01:34;;;;;;;15.67;4.60;;;3.50;99.90;;;;;;4948937;29;20541;-52
2023/01/31 02:04:02;;;;;;;14.93;3.37;;;3.50;99.90;;;;;;4952985;28;20589;-52
2023/01/31 02:06:28;;;;;;;11.23;2.80;;;3.50;99.90;;;;;;4947213;28;20891;-52
2023/01/31 02:08:58;;;;;;;11.93;3.27;;;3.50;99.90;;;;;;4946692;28;20498;-53
2023/01/31 02:11:27;;;;;;;17.43;4.97;;;3.50;99.90;;;;;;4949387;28;20495;-52
2023/01/31 02:13:59;;;;;;;12.13;2.73;;;3.50;99.90;;;;;;4952042;28;20532;-53
2023/01/31 02:16:26;;;;;;;16.63;4.00;;;3.50;99.90;;;;;;4945945;28;20490;-55
2023/01/31 02:18:53;;;;;;;11.40;3.00;;;3.50;99.90;;;;;;4945300;29;21000;-52
2023/01/31 02:22:03;;;;;;;12.43;3.03;;;3.50;99.90;;;;;;4947584;29;20494;-53
2023/01/31 02:25:07;;;;;;;10.47;3.20;;;3.40;99.90;;;;;;4949492;29;20510;-54
2023/01/31 02:28:06;;;;;;;10.87;2.87;;;3.40;99.90;;;;;;4928388;29;20506;-52
2023/01/31 02:31:14;;;;;;;8.27;3.00;;;3.40;99.90;;;;;;4944643;29;21029;-52
2023/01/31 02:33:46;;;;;;;16.60;3.73;;;3.40;99.90;;;;;;4946459;28;20510;-52
2023/01/31 02:36:26;;;;;;;10.07;3.30;;;3.40;99.90;;;;;;4949096;28;21358;-53
2023/01/31 02:39:04;;;;;;;10.03;2.80;;;3.40;99.90;;;;;;4950112;28;20549;-52
2023/01/31 02:41:36;;;;;;;11.77;3.37;;;3.30;99.90;;;;;;4946072;29;20465;-52
2023/01/31 02:47:11;;;;;;;9.77;3.50;;;3.20;99.90;;;;;;4935134;29;20451;-51
2023/01/31 02:49:45;;;;;;;13.23;3.37;;;3.10;99.90;;;;;;4948220;29;20960;-54
2023/01/31 02:52:20;;;;;;;17.63;3.80;;;2.90;1.40;;;;;;4950978;28;20494;-52
2023/01/31 02:57:43;;;;;;;11.80;3.40;;;2.70;99.90;;;;;;4942575;28;20847;-52
2023/01/31 03:00:12;;;;;;;11.47;3.30;;;2.60;99.90;;;;;;4950155;28;20917;-54
2023/01/31 03:02:38;;;;;;;14.10;3.03;;;2.50;99.90;;;;;;4950151;28;20541;-53
2023/01/31 03:05:07;;;;;;;9.50;3.03;;;2.50;99.90;;;;;;4950833;28;20545;-53
2023/01/31 03:07:37;;;;;;;11.60;2.97;;;2.40;99.90;;;;;;4945770;28;20541;-54
2023/01/31 03:10:15;;;;;;;18.90;3.80;;;2.40;99.90;;;;;;4950714;29;20467;-55
2023/01/31 03:13:02;;;;;;;10.97;2.90;;;2.30;99.90;;;;;;4946509;28;20913;-54
2023/01/31 03:18:36;;;;;;;13.50;3.20;;;2.20;99.90;;;;;;4943288;29;20558;-52
2023/01/31 03:21:09;;;;;;;7.47;2.40;;;2.20;99.90;;;;;;4943092;28;20462;-53
2023/01/31 03:23:38;;;;;;;9.13;3.00;;;2.20;99.90;;;;;;4950096;28;22400;-53
2023/01/31 03:26:07;;;;;;;10.30;3.00;;;2.10;99.90;;;;;;4950076;28;20553;-53
2023/01/31 03:28:38;;;;;;;12.67;2.87;;;2.10;99.90;;;;;;4951646;28;20498;-52
2023/01/31 03:31:10;;;;;;;16.53;3.17;;;2.10;99.90;;;;;;4946650;29;21015;-53
2023/01/31 03:33:40;;;;;;;16.77;3.20;;;2.10;99.90;;;;;;4942748;28;21041;-52
2023/01/31 03:36:17;;;;;;;14.17;3.10;;;2.00;99.90;;;;;;4947868;29;20598;-51
2023/01/31 03:38:52;;;;;;;15.17;3.30;;;2.00;97.70;;;;;;4945030;28;20550;-52
2023/01/31 03:41:25;;;;;;;18.00;3.50;;;1.90;98.30;;;;;;4945560;29;20554;-53
2023/01/31 03:43:59;;;;;;;11.90;2.40;;;1.90;92.20;;;;;;4947556;28;20524;-52
2023/01/31 03:46:30;;;;;;;10.67;2.90;;;2.00;91.50;;;;;;4948342;29;20476;-54
2023/01/31 03:48:59;;;;;;;11.30;2.60;;;1.90;93.20;;;;;;4949152;29;20502;-53
2023/01/31 03:51:31;;;;;;;15.43;3.23;;;1.90;89.60;;;;;;4944977;29;20557;-52
2023/01/31 03:54:01;;;;;;;8.87;3.00;;;1.80;89.80;;;;;;4947182;28;20578;-52
2023/01/31 03:56:32;;;;;;;10.60;3.20;;;1.80;85.10;;;;;;4945744;29;20561;-52
2023/01/31 03:59:02;;;;;;;12.80;3.30;;;1.80;81.40;;;;;;4946812;29;20566;-51
2023/01/31 04:01:33;;;;;;;9.30;2.30;;;1.70;79.50;;;;;;4947022;29;20558;-52
2023/01/31 04:04:07;;;;;;;10.97;3.40;;;1.70;77.40;;;;;;4948362;28;21051;-54
2023/01/31 04:06:35;;;;;;;9.57;2.80;;;1.60;74.60;;;;;;4947189;28;21031;-52
2023/01/31 04:09:01;;;;;;;9.13;2.53;;;1.60;71.40;;;;;;4946289;28;21293;-52
2023/01/31 04:11:28;;;;;;;19.80;3.33;;;1.60;70.40;;;;;;4948707;28;20974;-52
2023/01/31 04:13:55;;;;;;;16.13;2.90;;;1.60;67.00;;;;;;4954414;28;21074;-52
2023/01/31 04:16:22;;;;;;;6.77;2.90;;;1.60;63.80;;;;;;4948628;29;20901;-52
2023/01/31 04:18:49;;;;;;;14.77;4.07;;;1.60;69.30;;;;;;4952102;29;20462;-52
2023/01/31 04:21:15;;;;;;;13.10;3.33;;;1.60;64.90;;;;;;4951023;29;20467;-53
2023/01/31 04:23:43;;;;;;;12.97;3.33;;;1.60;63.10;;;;;;4947149;28;20943;-51
2023/01/31 04:26:10;;;;;;;12.27;3.23;;;1.70;66.60;;;;;;4948025;28;20550;-53
2023/01/31 04:28:36;;;;;;;13.93;2.77;;;1.70;63.70;;;;;;4951573;28;20553;-52
2023/01/31 04:31:03;;;;;;;7.63;2.83;;;1.60;63.90;;;;;;4949846;29;20574;-52
2023/01/31 04:33:29;;;;;;;13.40;3.10;;;1.70;61.60;;;;;;4954390;28;20529;-51
2023/01/31 04:35:56;;;;;;;10.80;3.30;;;1.60;61.00;;;;;;4952150;28;20466;-52
2023/01/31 04:38:22;;;;;;;11.67;3.33;;;1.60;60.90;;;;;;4954676;28;20528;-52
2023/01/31 04:40:50;;;;;;;8.90;2.60;;;1.60;56.30;;;;;;4949715;28;20557;-53
2023/01/31 04:43:17;;;;;;;15.90;3.50;;;1.60;55.50;;;;;;4952218;28;21012;-52
2023/01/31 04:45:43;;;;;;;13.37;3.53;;;1.60;51.20;;;;;;4948058;28;20904;-53
2023/01/31 04:48:10;;;;;;;8.73;2.87;;;1.60;47.30;;;;;;4950488;28;21067;-52
2023/01/31 04:50:37;;;;;;;10.93;2.70;;;1.70;46.80;;;;;;4951117;28;20906;-53
2023/01/31 04:53:03;;;;;;;17.57;3.10;;;1.70;47.90;;;;;;4948534;28;20487;-53
2023/01/31 04:55:30;;;;;;;9.40;2.13;;;1.80;46.20;;;;;;4947148;28;20486;-52
2023/01/31 04:57:58;;;;;;;18.17;3.70;;;1.80;50.20;;;;;;4949447;28;20470;-51
2023/01/31 05:00:24;;;;;;;13.23;2.93;;;1.80;47.00;;;;;;4952367;29;20554;-51
2023/01/31 05:02:51;;;;;;;7.57;2.40;;;1.80;46.10;;;;;;4951905;28;20493;-53
2023/01/31 05:05:18;;;;;;;12.70;3.50;;;1.80;41.70;;;;;;4948645;29;20495;-52
2023/01/31 05:07:45;;;;;;;12.80;2.67;;;1.80;43.10;;;;;;4952981;28;20506;-52
2023/01/31 05:10:12;;;;;;;11.30;2.90;;;1.80;42.60;;;;;;4954879;28;20486;-52
2023/01/31 05:12:39;;;;;;;9.53;2.93;;;1.90;40.80;;;;;;4950163;29;20558;-53
2023/01/31 05:15:08;;;;;;;13.37;3.57;;;1.90;45.00;;;;;;4953148;29;20526;-52
2023/01/31 05:17:35;;;;;;;15.93;3.43;;;1.90;45.20;;;;;;4948036;29;21175;-52
2023/01/31 05:20:01;;;;;;;13.13;3.30;;;1.90;39.90;;;;;;4955430;29;20538;-53
2023/01/31 05:22:28;;;;;;;7.90;2.60;;;1.90;40.40;;;;;;4952607;28;20493;-51
2023/01/31 05:24:54;;;;;;;13.10;2.83;;;1.90;39.10;;;;;;4952785;29;21069;-52
2023/01/31 05:27:21;;;;;;;22.90;3.27;;;2.00;39.40;;;;;;4948868;29;20595;-51
2023/01/31 05:29:47;;;;;;;10.93;2.83;;;2.00;37.40;;;;;;4952149;29;20561;-53
2023/01/31 05:32:16;;;;;;;10.87;2.37;;;2.00;36.90;;;;;;4950676;29;20444;-52
2023/01/31 05:34:43;;;;;;;7.00;2.60;;;2.00;35.30;;;;;;4950007;28;20478;-52
2023/01/31 05:37:09;;;;;;;6.83;2.47;;;2.00;32.70;;;;;;4947115;28;20559;-52
2023/01/31 05:39:36;;;;;;;11.30;2.90;;;2.20;32.70;;;;;;4949137;29;20550;-53
2023/01/31 05:42:02;;;;;;;7.60;3.00;;;2.20;34.50;;;;;;4944795;29;20498;-53
2023/01/31 05:44:31;;;;;;;16.53;3.47;;;2.30;36.20;;;;;;4951065;28;20565;-54
2023/01/31 05:46:57;;;;;;;11.00;3.10;;;2.30;38.10;;;;;;4951013;29;20475;-53
2023/01/31 05:49:25;;;;;;;13.83;3.30;;;2.40;38.50;;;;;;4948895;29;20466;-53
2023/01/31 05:51:51;;;;;;;16.47;3.87;;;2.60;42.50;;;;;;4946589;28;20498;-51
2023/01/31 05:54:18;;;;;;;14.13;3.50;;;2.60;45.70;;;;;;4950699;28;20520;-52
2023/01/31 05:56:44;;;;;;;14.27;3.30;;;2.70;48.30;;;;;;4949260;29;21044;-52
2023/01/31 05:59:11;;;;;;;12.93;4.13;;;3.00;56.40;;;;;;4952971;28;20491;-52
2023/01/31 06:01:37;;;;;;;11.30;3.17;;;3.00;58.20;;;;;;4950768;28;20498;-52
2023/01/31 06:04:04;;;;;;;13.83;3.60;;;3.00;61.30;;;;;;4948730;28;20484;-52
2023/01/31 06:06:32;;;;;;;22.60;3.80;;;3.10;62.60;;;;;;4949937;29;20570;-53
2023/01/31 06:08:58;;;;;;;13.40;4.00;;;3.10;67.90;;;;;;4949454;29;20599;-53
2023/01/31 06:11:25;;;;;;;14.83;3.57;;;3.20;71.80;;;;;;4945416;29;20560;-53
2023/01/31 06:13:56;;;;;;;10.83;3.27;;;3.20;74.50;;;;;;4949274;28;20574;-52
2023/01/31 06:16:23;;;;;;;19.07;3.33;;;3.20;77.20;;;;;;4950856;28;20463;-52
2023/01/31 06:18:49;;;;;;;16.60;3.23;;;3.30;78.70;;;;;;4950432;28;20960;-52
2023/01/31 06:21:16;;;;;;;11.80;2.70;;;3.30;83.50;;;;;;4944986;28;21032;-51
2023/01/31 06:23:46;;;;;;;13.27;3.37;;;3.30;83.20;;;;;;4949476;28;20482;-51
2023/01/31 06:26:13;;;;;;;13.77;3.40;;;3.30;85.00;;;;;;4948556;29;20463;-53
2023/01/31 06:28:39;;;;;;;14.70;3.57;;;3.30;84.90;;;;;;4948195;29;20549;-53
2023/01/31 06:31:07;;;;;;;12.43;3.87;;;3.30;87.80;;;;;;4948672;29;20590;-54
2023/01/31 06:33:34;;;;;;;15.97;4.60;;;3.40;88.90;;;;;;4951242;28;20489;-53
2023/01/31 06:36:00;;;;;;;9.93;3.20;;;3.30;92.80;;;;;;4948455;29;20999;-52
2023/01/31 06:38:27;;;;;;;13.60;3.77;;;3.30;91.10;;;;;;4947840;28;20502;-53
2023/01/31 06:40:55;;;;;;;12.73;3.47;;;3.40;94.60;;;;;;4945796;29;20466;-53
2023/01/31 06:43:22;;;;;;;11.23;3.23;;;3.40;96.70;;;;;;4946215;28;20565;-52
2023/01/31 06:45:49;;;;;;;14.87;3.50;;;3.40;98.70;;;;;;4949340;28;20577;-54
2023/01/31 06:48:16;;;;;;;15.37;3.33;;;3.40;96.90;;;;;;4946689;29;21410;-52
2023/01/31 06:50:43;;;;;;;9.83;3.77;;;3.40;95.30;;;;;;4947491;29;20554;-52
2023/01/31 06:53:10;;;;;;;11.97;3.33;;;3.50;96.30;;;;;;4947259;29;20935;-54
2023/01/31 06:55:37;;;;;;;8.57;2.47;;;3.50;95.70;;;;;;4949970;29;20547;-52
2023/01/31 06:58:05;;;;;;;10.23;3.37;;;3.50;94.90;;;;;;4946686;28;20555;-54
2023/01/31 07:00:32;;;;;;;13.33;2.60;;;3.50;91.50;;;;;;4946088;28;20570;-54
2023/01/31 07:02:58;;;;;;;9.50;3.10;;;3.50;90.40;;;;;;4947031;28;20570;-52
2023/01/31 07:05:25;;;;;;;11.37;3.30;;;3.50;88.90;;;;;;4949740;28;21083;-52
2023/01/31 07:07:51;;;;;;;8.33;2.90;;;3.50;87.60;;;;;;4953230;29;20455;-52
2023/01/31 07:10:18;;;;;;;8.53;3.30;;;3.50;85.70;;;;;;4952846;29;20573;-51
2023/01/31 07:12:45;;;;;;;10.53;3.60;;;3.60;84.80;;;;;;4953534;28;20474;-52
2023/01/31 07:15:13;;;;;;;15.40;4.70;;;3.60;83.00;;;;;;4944385;28;21043;-52
2023/01/31 07:17:39;;;;;;;8.00;2.40;;;3.60;82.00;;;;;;4947890;28;20854;-53
2023/01/31 07:20:07;;;;;;;11.87;3.10;;;3.60;78.50;;;;;;4953618;29;20482;-52
2023/01/31 07:22:34;;;;;;;12.63;3.50;;;3.60;77.90;;;;;;4948811;29;20557;-52
2023/01/31 07:25:00;;;;;;;9.27;2.90;;;3.70;76.30;;;;;;4952045;28;20577;-52
2023/01/31 07:27:27;;;;;;;10.40;3.60;;;3.70;75.70;;;;;;4947797;28;20648;-53
2023/01/31 07:29:54;;;;;;;10.70;3.37;;;3.70;76.30;;;;;;4949301;28;20902;-53
2023/01/31 07:32:21;;;;;;;13.97;3.33;;;3.70;76.40;;;;;;4946071;28;20550;-53
2023/01/31 07:34:48;;;;;;;8.97;3.47;;;3.70;75.10;;;;;;4949559;28;20954;-52
2023/01/31 07:37:14;;;;;;;15.40;4.10;;;3.70;72.70;;;;;;4948022;29;20462;-53
2023/01/31 07:39:41;;;;;;;12.93;2.90;;;3.70;72.90;;;;;;4947447;29;21016;-54
2023/01/31 07:42:07;;;;;;;13.90;3.53;;;3.70;71.80;;;;;;4948615;29;20549;-53
2023/01/31 07:44:34;;;;;;;11.90;3.70;;;3.70;70.50;;;;;;4947648;28;20553;-53
2023/01/31 07:47:00;;;;;;;11.33;3.10;;;3.80;68.30;;;;;;4947675;28;20494;-51
2023/01/31 07:49:28;;;;;;;7.97;3.23;;;3.80;67.50;;;;;;4950512;29;20546;-52
2023/01/31 07:51:55;;;;;;;10.40;3.30;;;3.80;65.70;;;;;;4952017;28;20553;-54
2023/01/31 07:54:21;;;;;;;25.57;5.37;;;3.80;60.90;;;;;;4951435;28;20514;-54
2023/01/31 07:56:48;;;;;;;9.33;2.83;;;3.80;58.60;;;;;;4951995;29;20553;-53
2023/01/31 07:59:16;;;;;;;15.53;3.70;;;3.80;55.20;;;;;;4951216;29;20490;-53
2023/01/31 08:04:26;;;;;;;9.03;2.90;;;3.80;54.60;;;;;;4947967;28;21018;-53
2023/01/31 08:06:55;;;;;;;21.07;3.77;;;3.80;53.10;;;;;;4952374;29;20530;-52
2023/01/31 08:09:23;;;;;;;12.13;4.23;;;3.80;52.10;;;;;;4954893;28;20466;-53
2023/01/31 08:11:50;;;;;;;22.40;3.23;;;3.80;46.70;;;;;;4954739;28;20537;-52
2023/01/31 08:14:19;;;;;;;7.30;2.70;;;3.80;49.80;;;;;;4949296;28;20604;-52
2023/01/31 08:16:46;;;;;;;13.10;4.50;;;3.80;49.10;;;;;;4956243;29;20466;-54
2023/01/31 08:19:12;;;;;;;12.30;3.70;;;3.90;44.50;;;;;;4953588;29;20521;-52
2023/01/31 08:21:39;;;;;;;12.57;3.60;;;3.90;39.40;;;;;;4949121;28;20541;-52
2023/01/31 08:24:07;;;;;;;9.43;2.83;;;3.80;31.40;;;;;;4948829;28;20930;-53
2023/01/31 08:26:34;;;;;;;9.47;2.83;;;3.80;20.40;;;;;;4951147;29;20578;-52
2023/01/31 08:29:01;;;;;;;7.57;2.73;;;3.80;96.60;;;;;;4948107;28;20462;-52
2023/01/31 08:31:28;;;;;;;12.67;2.67;;;3.80;99.90;;;;;;4946924;29;20545;-51
2023/01/31 08:33:56;;;;;;;13.57;3.17;;;3.70;99.90;;;;;;4949332;28;20601;-51
2023/01/31 08:36:25;;;;;;;14.93;4.37;;;3.70;99.90;;;;;;4938849;28;20470;-52
2023/01/31 08:38:52;;;;;;;6.67;2.93;;;3.70;99.90;;;;;;4948189;28;20517;-52
2023/01/31 08:41:22;;;;;;;12.63;3.60;;;3.70;99.90;;;;;;4947504;28;20553;-55
2023/01/31 08:43:49;;;;;;;12.50;3.50;;;3.70;99.90;;;;;;4952504;28;20522;-51
2023/01/31 08:46:15;;;;;;;12.23;3.87;;;3.70;99.90;;;;;;4952825;28;20490;-53
2023/01/31 08:48:42;;;;;;;10.00;3.33;;;3.80;99.90;;;;;;4952266;28;20506;-53
2023/01/31 08:51:11;;;;;;;17.43;3.50;;;3.70;99.90;;;;;;4954317;28;20529;-53
2023/01/31 08:53:38;;;;;;;8.73;2.53;;;3.80;99.90;;;;;;4953126;28;20581;-53
2023/01/31 08:56:07;;;;;;;11.50;3.87;;;3.80;99.90;;;;;;4951833;29;21286;-53
2023/01/31 08:58:37;;;;;;;13.60;3.40;;;3.90;99.90;;;;;;4945157;28;20554;-52
2023/01/31 09:01:05;;;;;;;14.80;3.20;;;3.90;99.90;;;;;;4951629;28;20562;-52
2023/01/31 09:03:32;;;;;;;15.07;2.63;;;3.90;99.90;;;;;;4950736;29;20577;-52
2023/01/31 09:05:59;;;;;;;11.43;3.23;;;4.00;99.90;;;;;;4954946;29;20566;-52
2023/01/31 09:08:26;;;;;;;10.70;2.90;;;3.90;99.90;;;;;;4952858;28;20513;-52
2023/01/31 09:10:54;;;;;;;11.10;3.97;;;3.90;84.40;;;;;;4951154;28;20518;-52
2023/01/31 09:13:21;;;;;;;21.67;3.90;;;4.00;77.90;;;;;;4947282;28;20488;-51
2023/01/31 09:15:57;;;;;;;17.33;3.43;;;4.00;21.70;;;;;;4950966;29;20989;-52
2023/01/31 09:18:24;;;;;;;10.83;3.20;;;4.00;20.30;;;;;;4946134;28;20565;-51
2023/01/31 09:20:50;;;;;;;14.40;2.97;;;4.10;27.40;;;;;;4948255;28;20502;-52
2023/01/31 09:23:18;;;;;;;26.97;3.77;;;4.10;26.00;;;;;;4950877;28;21026;-53
2023/01/31 09:25:51;;;;;;;17.03;3.00;;;4.10;26.50;;;;;;4947589;28;20537;-52
2023/01/31 09:28:17;;;;;;;11.13;2.67;;;4.10;33.90;;;;;;4953517;28;20486;-53
2023/01/31 09:30:44;;;;;;;25.30;4.33;;;4.20;33.60;;;;;;4949673;28;20578;-53
2023/01/31 09:33:11;;;;;;;18.47;4.10;;;4.20;37.70;;;;;;4952678;28;20573;-53
2023/01/31 09:35:38;;;;;;;11.63;4.43;;;4.30;41.50;;;;;;4952500;29;20557;-54
2023/01/31 09:38:05;;;;;;;11.50;2.97;;;4.30;41.10;;;;;;4941162;28;20932;-52
2023/01/31 09:40:35;;;;;;;17.07;3.43;;;4.40;42.30;;;;;;4949293;28;20466;-55
2023/01/31 09:43:03;;;;;;;7.93;3.00;;;4.40;44.50;;;;;;4946147;28;20542;-54
2023/01/31 09:45:33;;;;;;;14.17;3.73;;;4.40;48.10;;;;;;4946437;29;20490;-53
2023/01/31 09:48:01;;;;;;;15.90;3.83;;;4.50;53.50;;;;;;4945219;28;20557;-53
2023/01/31 09:50:34;;;;;;;26.30;4.77;;;4.50;55.90;;;;;;4945231;28;20529;-52
2023/01/31 09:53:01;;;;;;;13.60;3.30;;;4.60;58.00;;;;;;4945216;28;21004;-53
2023/01/31 09:55:36;;;;;;;17.90;4.70;;;4.70;68.60;;;;;;4950155;28;20525;-52
2023/01/31 09:58:09;;;;;;;15.90;3.50;;;4.70;74.10;;;;;;4949260;29;20472;-53
2023/01/31 10:00:43;;;;;;;22.13;3.40;;;4.70;77.30;;;;;;4946170;28;20565;-53
2023/01/31 10:03:35;;;;;;;14.73;4.43;;;4.80;81.00;;;;;;4948748;28;21291;-52
2023/01/31 10:06:12;;;;;;;14.23;3.50;;;4.80;88.20;;;;;;4943472;28;20573;-52
2023/01/31 10:08:46;;;;;;;9.47;3.17;;;4.70;92.20;;;;;;4939419;28;20467;-52
2023/01/31 10:11:18;;;;;;;16.57;4.23;;;4.80;87.40;;;;;;4941786;28;20556;-52
2023/01/31 10:13:49;;;;;;;13.37;3.43;;;4.80;94.40;;;;;;4951039;28;20565;-54
2023/01/31 10:16:25;;;;;;;20.20;3.80;;;4.80;88.90;;;;;;4949976;28;20546;-52
2023/01/31 10:18:57;;;;;;;20.70;3.70;;;4.80;86.50;;;;;;4945708;28;20502;-53
2023/01/31 10:21:32;;;;;;;12.90;4.17;;;4.80;97.20;;;;;;4949403;28;20477;-52
2023/01/31 10:24:05;;;;;;;18.73;4.10;;;4.80;91.60;;;;;;4949841;28;20518;-52
2023/01/31 10:26:36;;;;;;;19.60;4.07;;;4.80;89.70;;;;;;4944369;29;20613;-52
2023/01/31 10:29:10;;;;;;;16.90;3.30;;;4.80;87.40;;;;;;4950682;29;20522;-52
2023/01/31 10:31:41;;;;;;;12.17;3.50;;;4.80;88.80;;;;;;4953168;28;21020;-52
2023/01/31 10:34:15;;;;;;;16.77;3.73;;;4.80;93.30;;;;;;4951111;28;21114;-53
2023/01/31 10:36:49;;;;;;;22.30;4.87;;;4.80;91.50;;;;;;4952275;28;20454;-52
2023/01/31 10:39:22;;;;;;;18.83;3.30;;;4.80;94.50;;;;;;4949497;29;20562;-53
2023/01/31 10:42:08;;;;;;;15.03;3.30;;;4.80;87.70;;;;;;4951375;28;20477;-52
2023/01/31 10:44:42;;;;;;;14.90;3.53;;;4.90;89.90;;;;;;4946168;28;20500;-53
2023/01/31 10:47:13;;;;;;;13.07;3.53;;;5.00;93.80;;;;;;4950909;28;20490;-52
2023/01/31 10:49:41;;;;;;;16.43;4.73;;;5.00;99.90;;;;;;4950850;28;20474;-52
2023/01/31 10:52:18;;;;;;;22.50;4.07;;;5.00;99.90;;;;;;4952426;28;20549;-52
2023/01/31 10:54:59;;;;;;;21.80;3.70;;;5.00;99.90;;;;;;4950702;28;20578;-52
2023/01/31 10:57:26;;;;;;;21.73;5.47;;;5.00;99.90;;;;;;4947909;28;20529;-52
2023/01/31 10:59:54;;;;;;;8.43;3.00;;;5.00;99.90;;;;;;4946052;28;20578;-51
2023/01/31 11:02:23;;;;;;;13.03;3.23;;;5.00;99.90;;;;;;4951306;29;20459;-51
2023/01/31 11:04:51;;;;;;;20.50;3.80;;;5.00;99.90;;;;;;4952349;28;20491;-51
2023/01/31 11:07:20;;;;;;;16.60;4.63;;;5.00;99.90;;;;;;4952265;28;20526;-51
2023/01/31 11:09:50;;;;;;;16.30;3.87;;;5.10;99.20;;;;;;4947961;28;20559;-51
2023/01/31 11:12:17;;;;;;;13.23;3.50;;;5.10;99.90;;;;;;4942245;28;20486;-50
2023/01/31 11:14:43;;;;;;;17.70;3.40;;;5.00;88.80;;;;;;4949695;28;20577;-51
2023/01/31 11:17:16;;;;;;;14.93;4.10;;;5.00;87.90;;;;;;4945295;28;21060;-52
2023/01/31 11:19:45;;;;;;;14.97;4.30;;;4.90;86.60;;;;;;4945751;28;20887;-51
2023/01/31 11:22:24;;;;;;;12.03;3.17;;;4.90;87.00;;;;;;4944584;28;20573;-51
2023/01/31 11:24:51;;;;;;;21.03;5.10;;;5.10;85.30;;;;;;4948037;28;21625;-52
2023/01/31 11:27:26;;;;;;;15.40;3.60;;;5.10;96.00;;;;;;4946054;28;21091;-50
2023/01/31 11:29:56;;;;;;;21.70;4.30;;;5.20;98.30;;;;;;4946488;28;20505;-51
2023/01/31 11:32:26;;;;;;;20.07;4.47;;;5.20;91.20;;;;;;4945507;28;20486;-51
2023/01/31 11:34:58;;;;;;;11.80;3.80;;;5.20;99.90;;;;;;4948230;28;20483;-51
2023/01/31 11:37:28;;;;;;;15.47;5.13;;;5.20;99.90;;;;;;4947715;29;20633;-51
2023/01/31 11:39:56;;;;;;;19.47;3.50;;;5.10;99.90;;;;;;4942830;28;21410;-51
2023/01/31 11:42:23;;;;;;;14.10;3.77;;;5.10;91.20;;;;;;4946378;28;20558;-50
2023/01/31 11:44:57;;;;;;;15.60;3.20;;;5.10;94.10;;;;;;4951809;28;20493;-50
2023/01/31 11:47:30;;;;;;;21.50;4.77;;;5.00;94.60;;;;;;4949063;28;20518;-52
2023/01/31 11:49:57;;;;;;;12.27;3.43;;;5.00;93.10;;;;;;4947702;28;20524;-52
2023/01/31 11:52:31;;;;;;;16.03;4.40;;;5.00;88.90;;;;;;4953360;29;20474;-52
2023/01/31 11:55:00;;;;;;;17.57;4.23;;;5.00;82.40;;;;;;4947992;28;20529;-52
2023/01/31 11:57:31;;;;;;;22.00;4.33;;;4.90;77.50;;;;;;4945417;28;20562;-51
2023/01/31 12:00:01;;;;;;;16.93;4.53;;;4.90;68.20;;;;;;4941905;28;20566;-51
2023/01/31 12:02:34;;;;;;;13.57;3.90;;;4.80;57.50;;;;;;4949528;29;20474;-52
2023/01/31 12:05:02;;;;;;;28.23;5.90;;;4.80;49.30;;;;;;4948676;28;20518;-52
2023/01/31 12:07:41;;;;;;;17.20;4.73;;;4.70;42.30;;;;;;4949584;29;20577;-52
2023/01/31 12:10:28;;;;;;;15.27;4.17;;;4.70;28.30;;;;;;4948290;28;20476;-52
2023/01/31 12:13:00;;;;;;;19.00;4.07;;;4.70;98.40;;;;;;4950009;28;20558;-50
2023/01/31 12:15:28;;;;;;;20.40;5.63;;;4.60;99.90;;;;;;4945179;28;20565;-52
2023/01/31 12:17:56;;;;;;;15.70;4.50;;;4.60;99.90;;;;;;4949202;28;20459;-55
2023/01/31 12:20:34;;;;;;;25.23;5.83;;;4.60;99.90;;;;;;4946992;28;20541;-53
2023/01/31 12:23:12;;;;;;;18.13;4.90;;;4.50;99.90;;;;;;4942904;28;20565;-52
2023/01/31 12:26:08;;;;;;;26.43;4.93;;;4.50;99.90;;;;;;4938006;28;20547;-51
2023/01/31 12:28:54;;;;;;;26.53;4.87;;;4.40;99.90;;;;;;4950140;28;20506;-51
2023/01/31 12:31:40;;;;;;;24.27;5.20;;;4.40;99.90;;;;;;4942374;28;20521;-53
2023/01/31 12:34:30;;;;;;;20.30;5.67;;;4.40;99.90;;;;;;4941679;28;20517;-51
2023/01/31 12:37:17;;;;;;;23.23;5.10;;;4.40;99.90;;;;;;4955463;29;20477;-52
2023/01/31 12:40:08;;;;;;;15.73;4.93;;;4.40;99.90;;;;;;4948791;28;20594;-52
2023/01/31 12:42:54;;;;;;;17.63;5.43;;;4.30;99.90;;;;;;4946656;28;20476;-54
2023/01/31 12:45:47;;;;;;;16.73;4.87;;;4.30;99.90;;;;;;4951209;28;20553;-53
2023/01/31 12:48:42;;;;;;;16.63;5.20;;;4.30;99.90;;;;;;4945698;28;20997;-51
2023/01/31 12:51:22;;;;;;;15.70;4.50;;;4.30;99.90;;;;;;4954286;28;20447;-54
2023/01/31 12:54:01;;;;;;;15.07;4.67;;;4.30;99.90;;;;;;4951889;28;20566;-52
2023/01/31 12:56:46;;;;;;;14.30;5.00;;;4.30;99.90;;;;;;4945132;28;20578;-53
2023/01/31 12:59:26;;;;;;;11.80;5.00;;;4.30;99.90;;;;;;4941043;29;20837;-53
2023/01/31 13:01:59;;;;;;;11.87;4.53;;;4.30;99.90;;;;;;4949057;28;20812;-54
2023/01/31 13:04:38;;;;;;;22.77;4.83;;;4.30;99.90;;;;;;4944353;28;21075;-53
2023/01/31 13:07:11;;;;;;;9.70;4.53;;;4.30;99.90;;;;;;4948488;28;20545;-53
2023/01/31 13:09:38;;;;;;;14.47;4.47;;;4.20;99.90;;;;;;4942715;28;20503;-53
2023/01/31 13:12:11;;;;;;;12.57;4.63;;;4.30;99.90;;;;;;4951186;28;20490;-53
2023/01/31 13:14:41;;;;;;;13.07;4.37;;;4.30;99.90;;;;;;4946900;29;21043;-53